KAAF/AAF METAR and TAF weather

Enter ICAO airport designator
Station Type Date Time Source
KAAF METAR 2019/10/21 03:53 UTC NOAA

KAAF 210353Z AUTO 00000KT 10SM CLR 19/18 A2997 RMK AO2 SLP149 T01940178 $


Station Type Date Time Source
KAAF Decoded METAR 2019/10/21 03:53 UTC NOAA

APALACHICOLA MUNICIPAL AIRPORT, FL, United States (KAAF) 29-44N 085-01W 5M
Oct 20, 2019 - 11:53 PM EDT / 2019.10.21 0353 UTC
Wind: Calm:0
Visibility: 10 mile(s):0
Sky conditions: clear
Temperature: 66.9 F (19.4 C)
Dew Point: 64.0 F (17.8 C)
Relative Humidity: 90%
Pressure (altimeter): 29.97 in. Hg (1014 hPa)
ob: KAAF 210353Z AUTO 00000KT 10SM CLR 19/18 A2997 RMK AO2 SLP149 T01940178
cycle: 4

Station Type Date Time Source
KAAF TAF UTC NOAA

Error!

Example: see airport list